Terminal Aerodrome Forecast
Issued by NWS Pendleton, OR

Home | Current Version | Previous Version | Text Only | Print | Product List | Glossary On
Versions: 1 2 3 4 5 6 7 8 9 10 11 12 13 14 15 16 17 18 19 20 21 22
000
FTUS46 KPDT 010500
TAFPDT
TAF
KPDT 010529Z 0106/0206 17006KT P6SM -RA BKN040 OVC060
     FM010800 16005KT 4SM -RA BR BKN025 OVC040
     FM011300 29005KT 3SM RA BR BKN006 OVC015
     FM012000 28010KT P6SM -SHRA BKN025 OVC040
     FM020200 25013KT P6SM BKN070 OVC150=

USA.gov is the U.S. government's official web portal to all federal, state and local government web resources and services.